Time;durP1;ratioP1;P1;durP2;ratioP2;P2;SDS_P1;SDS_P2;PMS_P1;PMS_P2;Temp;Humidity;BMP_temperature;BMP_pressure;BME280_temperature;BME280_humidity;BME280_pressure;Samples;Min_cycle;Max_cycle;Signal;HPM_P1;HPM_P2
2021/11/20 06:21:38;;;;;;;17.63;10.60;;;;;;;;;;5375455;23;20063;-60
2021/11/20 06:24:05;;;;;;;16.83;10.65;;;;;;;;;;4934604;29;20040;-60
2021/11/20 06:26:31;;;;;;;21.95;13.32;;;;;;;;;;4934636;29;20114;-62
2021/11/20 06:28:57;;;;;;;21.52;12.30;;;;;;;;;;4934926;29;20027;-60
2021/11/20 06:31:24;;;;;;;21.05;12.20;;;;;;;;;;4934709;29;20028;-62
2021/11/20 06:33:52;;;;;;;22.40;12.20;;;;;;;;;;4934608;29;20106;-63
2021/11/20 06:36:21;;;;;;;18.98;12.48;;;;;;;;;;4934507;29;20035;-62
2021/11/20 06:38:48;;;;;;;20.38;11.75;;;;;;;;;;4934407;29;20067;-63
2021/11/20 06:41:14;;;;;;;22.00;13.00;;;;;;;;;;4934708;29;20036;-62
2021/11/20 06:43:40;;;;;;;20.63;12.43;;;;;;;;;;4934297;29;20038;-61
2021/11/20 06:46:08;;;;;;;20.75;11.63;;;;;;;;;;4934351;29;20439;-62
2021/11/20 06:48:34;;;;;;;24.33;12.25;;;;;;;;;;4933261;29;20031;-62
2021/11/20 06:51:01;;;;;;;22.33;12.80;;;;;;;;;;4946618;29;20039;-62
2021/11/20 06:53:28;;;;;;;18.83;11.60;;;;;;;;;;4944484;29;20027;-62
2021/11/20 06:55:55;;;;;;;20.73;11.82;;;;;;;;;;4940486;29;20030;-62
2021/11/20 06:58:41;;;;;;;22.35;12.75;;;;;;;;;;4943212;29;20095;-62
2021/11/20 07:01:09;;;;;;;25.67;13.20;;;;;;;;;;4938723;29;20091;-63
2021/11/20 07:03:49;;;;;;;19.65;11.10;;;;;;;;;;4942462;29;20390;-62
2021/11/20 07:06:18;;;;;;;23.92;11.10;;;;;;;;;;4941331;29;20098;-63
2021/11/20 07:08:44;;;;;;;21.45;12.18;;;;;;;;;;4941736;29;20423;-62
2021/11/20 07:11:11;;;;;;;21.40;12.15;;;;;;;;;;4943021;29;20027;-64
2021/11/20 07:13:37;;;;;;;19.80;12.65;;;;;;;;;;4942640;29;20082;-63
2021/11/20 07:16:05;;;;;;;19.13;12.48;;;;;;;;;;4941540;29;20027;-64
2021/11/20 07:18:31;;;;;;;24.20;12.52;;;;;;;;;;4942556;29;20038;-63
2021/11/20 07:20:57;;;;;;;22.48;12.82;;;;;;;;;;4941203;29;20055;-62
2021/11/20 07:23:28;;;;;;;20.80;12.68;;;;;;;;;;4913898;29;20550;-60
2021/11/20 07:25:54;;;;;;;21.63;13.35;;;;;;;;;;4916931;29;20036;-65
2021/11/20 07:28:21;;;;;;;21.50;13.27;;;;;;;;;;4917444;29;20032;-61
2021/11/20 07:30:47;;;;;;;24.08;13.60;;;;;;;;;;4914624;29;20028;-67
2021/11/20 07:33:13;;;;;;;24.67;13.57;;;;;;;;;;4914609;29;20039;-66
2021/11/20 07:35:41;;;;;;;22.70;14.75;;;;;;;;;;4914300;29;20087;-69
2021/11/20 07:38:09;;;;;;;22.92;11.68;;;;;;;;;;4914430;29;20491;-60
2021/11/20 07:40:36;;;;;;;17.40;11.27;;;;;;;;;;4921067;29;20460;-70
2021/11/20 07:43:03;;;;;;;20.25;11.18;;;;;;;;;;4933536;29;20080;-66
2021/11/20 18:16:45;;;;;;;14.85;10.43;;;;;;;;;;4809208;23;20055;-63
2021/11/20 18:19:11;;;;;;;17.13;10.52;;;;;;;;;;4878565;29;20095;-60
2021/11/20 18:21:37;;;;;;;14.15;9.32;;;;;;;;;;4896223;29;20057;-62
2021/11/20 18:24:04;;;;;;;17.30;9.77;;;;;;;;;;4897260;29;20025;-59
2021/11/20 18:26:30;;;;;;;19.02;12.10;;;;;;;;;;4897077;29;20036;-56
2021/11/20 18:28:57;;;;;;;16.30;9.98;;;;;;;;;;4896011;29;20024;-58
2021/11/20 18:31:23;;;;;;;14.82;9.65;;;;;;;;;;4878636;29;20041;-57
2021/11/20 18:33:52;;;;;;;16.33;10.10;;;;;;;;;;4895836;29;20021;-58
2021/11/20 18:36:18;;;;;;;15.70;9.82;;;;;;;;;;4895702;29;20021;-64
2021/11/20 18:38:44;;;;;;;14.27;8.77;;;;;;;;;;4889519;29;20401;-57
2021/11/20 18:41:11;;;;;;;17.70;9.63;;;;;;;;;;4878188;29;20035;-58
2021/11/20 18:43:37;;;;;;;13.93;9.30;;;;;;;;;;4894911;29;20020;-64
2021/11/20 18:46:03;;;;;;;16.95;10.18;;;;;;;;;;4895276;29;20040;-64
2021/11/20 18:48:29;;;;;;;15.93;10.05;;;;;;;;;;4895192;29;20040;-59
2021/11/20 18:50:56;;;;;;;19.25;10.90;;;;;;;;;;4895829;29;20512;-60
2021/11/20 18:53:22;;;;;;;16.35;11.07;;;;;;;;;;4895879;29;20141;-62
2021/11/20 18:55:50;;;;;;;18.63;11.75;;;;;;;;;;4895692;29;20060;-60
2021/11/20 18:58:16;;;;;;;19.67;13.10;;;;;;;;;;4895960;29;20543;-69
2021/11/20 19:00:43;;;;;;;20.25;12.40;;;;;;;;;;4894855;29;20041;-58
2021/11/20 19:03:09;;;;;;;23.95;14.00;;;;;;;;;;4895093;29;20021;-68
2021/11/20 19:05:36;;;;;;;23.02;14.02;;;;;;;;;;4894848;29;20052;-63
2021/11/20 19:08:03;;;;;;;23.95;14.20;;;;;;;;;;4893789;29;20047;-60
2021/11/20 19:10:30;;;;;;;23.50;14.82;;;;;;;;;;4893825;29;20473;-65
2021/11/20 19:12:56;;;;;;;22.13;14.60;;;;;;;;;;4892539;29;20044;-67
2021/11/20 19:15:22;;;;;;;20.10;13.02;;;;;;;;;;4892223;29;20431;-64
2021/11/20 19:17:48;;;;;;;23.88;14.77;;;;;;;;;;4893636;29;20039;-64
2021/11/20 19:20:15;;;;;;;23.10;13.48;;;;;;;;;;4893687;29;20400;-64
2021/11/20 19:22:42;;;;;;;26.50;15.13;;;;;;;;;;4893818;29;20493;-63
2021/11/20 19:25:09;;;;;;;20.58;14.32;;;;;;;;;;4893791;29;20040;-63
2021/11/20 19:27:35;;;;;;;22.85;14.60;;;;;;;;;;4893439;29;20028;-67
2021/11/20 19:30:01;;;;;;;37.03;18.40;;;;;;;;;;4893139;29;20044;-59
2021/11/20 19:32:27;;;;;;;32.53;19.67;;;;;;;;;;4893393;29;20032;-68
2021/11/20 19:34:53;;;;;;;45.40;28.33;;;;;;;;;;4895101;29;20086;-67
2021/11/20 19:37:19;;;;;;;44.92;27.33;;;;;;;;;;4894452;29;20040;-58
2021/11/20 19:39:45;;;;;;;39.25;23.77;;;;;;;;;;4894545;29;20047;-62
2021/11/20 19:42:11;;;;;;;40.20;24.13;;;;;;;;;;4894161;29;20029;-58
2021/11/20 19:44:38;;;;;;;41.55;24.98;;;;;;;;;;4894238;29;20032;-61
2021/11/20 19:47:04;;;;;;;52.17;31.20;;;;;;;;;;4893208;29;20095;-57
2021/11/20 19:49:32;;;;;;;42.70;24.40;;;;;;;;;;4892572;29;20096;-64
2021/11/20 19:51:59;;;;;;;29.33;19.40;;;;;;;;;;4892355;29;20088;-66
2021/11/20 19:54:25;;;;;;;21.35;13.38;;;;;;;;;;4877019;29;20032;-62
2021/11/20 19:56:52;;;;;;;34.40;17.67;;;;;;;;;;4893597;29;20033;-60
2021/11/20 19:59:19;;;;;;;23.98;14.82;;;;;;;;;;4893639;29;20127;-62
2021/11/20 20:01:46;;;;;;;21.50;13.70;;;;;;;;;;4893929;29;20043;-60
2021/11/20 20:04:12;;;;;;;24.55;14.93;;;;;;;;;;4894853;29;20135;-60
2021/11/20 20:06:38;;;;;;;21.05;13.27;;;;;;;;;;4895655;29;20033;-61
2021/11/20 20:09:08;;;;;;;23.10;13.45;;;;;;;;;;4894866;29;20064;-61
2021/11/20 20:11:34;;;;;;;23.42;13.30;;;;;;;;;;4876567;29;20081;-59
2021/11/20 20:14:00;;;;;;;22.27;14.15;;;;;;;;;;4893277;29;20033;-58
2021/11/20 20:16:28;;;;;;;28.48;17.13;;;;;;;;;;4895479;29;20076;-62
2021/11/20 20:18:55;;;;;;;19.80;12.18;;;;;;;;;;4895567;29;20124;-64
2021/11/20 20:21:22;;;;;;;18.63;12.05;;;;;;;;;;4895537;29;20036;-61
2021/11/20 20:23:49;;;;;;;17.58;10.80;;;;;;;;;;4894593;29;20040;-58
2021/11/20 20:26:15;;;;;;;16.48;10.52;;;;;;;;;;4893928;29;20064;-65
2021/11/20 20:28:43;;;;;;;22.90;13.43;;;;;;;;;;4892506;29;21000;-64
2021/11/20 20:31:10;;;;;;;26.20;15.38;;;;;;;;;;4876500;29;20473;-60
2021/11/20 20:33:37;;;;;;;21.83;12.75;;;;;;;;;;4893166;29;20053;-61
2021/11/20 20:36:03;;;;;;;27.17;16.63;;;;;;;;;;4893030;29;20017;-61
2021/11/20 20:38:29;;;;;;;26.63;15.55;;;;;;;;;;4893030;29;20024;-61
2021/11/20 20:40:55;;;;;;;21.15;13.52;;;;;;;;;;4892234;29;20028;-64
2021/11/20 20:43:21;;;;;;;20.08;11.93;;;;;;;;;;4895182;29;20508;-62
2021/11/20 20:45:47;;;;;;;21.75;13.10;;;;;;;;;;4897349;29;20036;-64
2021/11/20 20:48:14;;;;;;;25.52;14.10;;;;;;;;;;4896504;29;20032;-62
2021/11/20 20:50:40;;;;;;;25.98;13.82;;;;;;;;;;4902781;29;20095;-60
2021/11/20 20:53:06;;;;;;;22.15;12.95;;;;;;;;;;4917420;29;20036;-62
2021/11/20 20:55:32;;;;;;;22.23;13.63;;;;;;;;;;4910486;29;20064;-62
2021/11/20 20:57:58;;;;;;;19.63;12.73;;;;;;;;;;4898337;29;20040;-62
2021/11/20 21:00:25;;;;;;;18.23;12.30;;;;;;;;;;4898153;29;20049;-63
2021/11/20 21:02:52;;;;;;;20.60;12.00;;;;;;;;;;4897185;29;20141;-60
2021/11/20 21:05:18;;;;;;;17.20;12.35;;;;;;;;;;4897859;29;20445;-62
2021/11/20 21:07:46;;;;;;;20.63;13.05;;;;;;;;;;4879467;29;20384;-62
2021/11/20 21:10:12;;;;;;;21.80;13.10;;;;;;;;;;4897670;29;20480;-64
2021/11/20 21:12:39;;;;;;;29.25;18.67;;;;;;;;;;4897564;29;20119;-63
2021/11/20 21:15:06;;;;;;;21.63;14.27;;;;;;;;;;4897060;29;20033;-63
2021/11/20 21:17:33;;;;;;;28.25;16.08;;;;;;;;;;4896871;29;20111;-64
2021/11/20 21:22:44;;;;;;;32.78;19.55;;;;;;;;;;4886543;29;20083;-63
2021/11/20 21:25:10;;;;;;;33.22;20.20;;;;;;;;;;4897041;29;20031;-63
2021/11/20 21:27:36;;;;;;;40.78;23.33;;;;;;;;;;4896790;29;20073;-61
2021/11/20 21:30:03;;;;;;;40.15;23.67;;;;;;;;;;4896865;29;20115;-62
2021/11/20 21:32:29;;;;;;;45.22;24.88;;;;;;;;;;4897044;29;20031;-63
2021/11/20 21:34:56;;;;;;;42.58;24.85;;;;;;;;;;4896898;29;20036;-63
2021/11/20 21:37:23;;;;;;;43.33;25.30;;;;;;;;;;4897854;29;20029;-61
2021/11/20 21:39:50;;;;;;;40.42;24.63;;;;;;;;;;4898060;29;20416;-62
2021/11/20 21:42:18;;;;;;;43.72;26.00;;;;;;;;;;4897618;29;20085;-64
2021/11/20 21:44:45;;;;;;;47.05;27.15;;;;;;;;;;4896831;29;20037;-63
2021/11/20 21:47:12;;;;;;;44.05;25.83;;;;;;;;;;4880105;29;20036;-62
2021/11/20 21:49:39;;;;;;;43.63;26.38;;;;;;;;;;4896259;29;20370;-65
2021/11/20 21:52:08;;;;;;;46.83;25.58;;;;;;;;;;4895661;29;20033;-63
2021/11/20 21:54:34;;;;;;;43.08;26.08;;;;;;;;;;4893932;29;20017;-63
2021/11/20 21:57:06;;;;;;;44.50;25.27;;;;;;;;;;4896086;29;20051;-63
2021/11/20 21:59:33;;;;;;;43.83;25.50;;;;;;;;;;4897409;29;20062;-62
2021/11/20 22:01:59;;;;;;;43.65;26.00;;;;;;;;;;4896770;29;20027;-63
2021/11/20 22:04:26;;;;;;;46.92;27.80;;;;;;;;;;4897411;29;20028;-63
2021/11/20 22:06:52;;;;;;;41.53;25.77;;;;;;;;;;4897134;29;20040;-66
2021/11/20 22:09:21;;;;;;;46.95;28.42;;;;;;;;;;4896922;29;20033;-62
2021/11/20 22:11:47;;;;;;;47.08;27.55;;;;;;;;;;4896839;29;20504;-62
2021/11/20 22:14:13;;;;;;;46.70;28.42;;;;;;;;;;4897168;29;20040;-62
2021/11/20 22:16:39;;;;;;;50.67;28.88;;;;;;;;;;4896867;29;20139;-62
2021/11/20 22:19:05;;;;;;;52.55;29.13;;;;;;;;;;4897088;29;20488;-63
2021/11/20 22:21:31;;;;;;;48.67;27.45;;;;;;;;;;4897284;29;20047;-62
2021/11/20 22:23:58;;;;;;;48.83;28.83;;;;;;;;;;4897016;29;20044;-62
2021/11/20 22:26:24;;;;;;;48.05;27.70;;;;;;;;;;4896560;29;20033;-63
2021/11/20 22:28:51;;;;;;;49.70;29.60;;;;;;;;;;4896939;29;20036;-62
2021/11/20 22:31:18;;;;;;;50.40;28.63;;;;;;;;;;4896874;29;20032;-62
2021/11/20 22:33:44;;;;;;;49.20;27.45;;;;;;;;;;4896704;29;20083;-62
2021/11/20 22:36:10;;;;;;;46.00;26.88;;;;;;;;;;4896876;29;20116;-62
2021/11/20 22:38:36;;;;;;;43.70;27.05;;;;;;;;;;4905496;29;20489;-62
2021/11/20 22:41:03;;;;;;;44.67;26.52;;;;;;;;;;4915478;29;20444;-62
2021/11/20 22:43:29;;;;;;;43.92;27.05;;;;;;;;;;4915663;29;20160;-62
2021/11/20 22:45:55;;;;;;;53.40;32.47;;;;;;;;;;4915375;29;20032;-62
2021/11/20 22:48:22;;;;;;;43.22;25.85;;;;;;;;;;4898687;29;20393;-62
2021/11/20 22:50:48;;;;;;;42.10;25.60;;;;;;;;;;4915947;29;20520;-62
2021/11/20 22:53:15;;;;;;;44.53;26.33;;;;;;;;;;4915964;29;20906;-63
2021/11/20 22:55:41;;;;;;;40.65;25.20;;;;;;;;;;4915805;29;20484;-61
2021/11/20 22:58:07;;;;;;;48.10;30.63;;;;;;;;;;4915652;29;20115;-61
2021/11/20 23:00:33;;;;;;;54.90;33.83;;;;;;;;;;4915312;29;20134;-61
2021/11/20 23:03:00;;;;;;;56.40;34.05;;;;;;;;;;4915428;29;20481;-61
2021/11/20 23:05:26;;;;;;;52.45;32.30;;;;;;;;;;4915567;29;20039;-61
2021/11/20 23:07:55;;;;;;;45.35;28.23;;;;;;;;;;4914709;29;20076;-62
2021/11/20 23:10:21;;;;;;;47.22;28.67;;;;;;;;;;4915037;29;20030;-62
2021/11/20 23:12:47;;;;;;;46.20;27.75;;;;;;;;;;4915535;29;20028;-62
2021/11/20 23:15:14;;;;;;;45.97;27.83;;;;;;;;;;4914817;29;20060;-62
2021/11/20 23:17:40;;;;;;;46.15;27.48;;;;;;;;;;4915175;29;20144;-62
2021/11/20 23:20:06;;;;;;;44.35;27.70;;;;;;;;;;4915336;29;20080;-62
2021/11/20 23:22:33;;;;;;;42.17;26.45;;;;;;;;;;4915196;29;20027;-62
2021/11/20 23:24:59;;;;;;;43.83;26.90;;;;;;;;;;4915047;29;20400;-62
2021/11/20 23:27:25;;;;;;;42.10;25.90;;;;;;;;;;4914451;29;20031;-62
2021/11/20 23:29:57;;;;;;;44.97;27.00;;;;;;;;;;4915376;29;20028;-62
2021/11/20 23:32:28;;;;;;;54.38;32.90;;;;;;;;;;4914360;29;20032;-62
2021/11/20 23:34:54;;;;;;;74.82;44.60;;;;;;;;;;4914992;29;20032;-61
2021/11/20 23:37:20;;;;;;;81.43;42.13;;;;;;;;;;4914677;29;20032;-62
2021/11/20 23:39:46;;;;;;;74.22;42.83;;;;;;;;;;4914914;29;20040;-62
2021/11/20 23:42:12;;;;;;;70.53;40.78;;;;;;;;;;4914895;29;20028;-62
2021/11/20 23:44:38;;;;;;;55.63;33.30;;;;;;;;;;4914621;29;20470;-61
2021/11/20 23:47:04;;;;;;;50.28;31.55;;;;;;;;;;4915117;29;20099;-61
2021/11/20 23:49:30;;;;;;;53.63;33.22;;;;;;;;;;4914804;29;20033;-62
2021/11/20 23:51:56;;;;;;;59.95;34.97;;;;;;;;;;4914740;29;20404;-62
2021/11/20 23:54:23;;;;;;;62.33;35.85;;;;;;;;;;4914633;29;20510;-62
2021/11/20 23:56:49;;;;;;;55.03;32.40;;;;;;;;;;4914711;29;20107;-63
2021/11/20 23:59:15;;;;;;;49.65;29.58;;;;;;;;;;4914772;29;20492;-61
